Terminal Aerodrome Forecast
Issued by NWS

Home | Current Version | Previous Version | Text Only | Print | Product List | Glossary On
Versions: 1 2 3 4 5 6 7 8 9 10 11 12 13 14 15 16 17 18 19 20 21 22 23 24 25 26 27 28
000
FTPA31 PHFO 292300 RRA
TAFOGG
TAF
PHOG 292344Z 3000/3024 20018KT P6SM FEW035 SCT045
     FM300500 20010KT P6SM FEW030
     FM301200 19005KT P6SM VCSH SCT025 BKN035
     FM302000 36010KT P6SM SCT025 BKN035
      AMD LTD TO WX VIS AND WIND 3009/3016=

USA.gov is the U.S. government's official web portal to all federal, state and local government web resources and services.